Terminal Aerodrome Forecast
Issued by NWS St Louis, MO

Home | Current Version | Previous Version | Graphics & Text | Print | Product List | Glossary On
Versions: 1 2 3 4 5 6 7 8 9 10 11 12 13 14 15 16 17 18 19 20 21 22 23 24 25 26 27 28 29 30 31 32
000
FTUS43 KLSX 231609 AAB
TAFSTL
TAF AMD
KSTL 231609Z 2316/2418 26010KT P6SM OVC010
     FM232100 30004KT P6SM OVC020
     FM240200 02004KT P6SM -RA OVC015
     FM240800 06007KT 2SM RA BR OVC004=

USA.gov is the U.S. government's official web portal to all federal, state and local government web resources and services.